createdAt,value
2022-08-01T00:00:51.534Z,-20635.50
2022-08-01T00:03:19.308Z,-20634.75
2022-08-01T00:05:47.626Z,-20631.72
2022-08-01T00:08:15.344Z,-20626.88
2022-08-01T00:10:43.106Z,-20628.84
2022-08-01T00:13:10.783Z,-20626.44
2022-08-01T00:15:38.560Z,-20625.53
2022-08-01T00:18:07.676Z,-20624.63
2022-08-01T00:20:35.420Z,-20623.25
2022-08-01T00:23:04.587Z,-20624.63
2022-08-01T00:25:33.996Z,-20622.19
2022-08-01T00:28:02.244Z,-20620.53
2022-08-01T00:30:31.941Z,-20616.44
2022-08-01T00:32:59.577Z,-20617.03
2022-08-01T00:35:29.105Z,-20615.84
2022-08-01T00:37:56.774Z,-20612.94
2022-08-01T00:40:24.867Z,-20611.91
2022-08-01T00:42:52.556Z,-20614.63
2022-08-01T00:45:20.266Z,-20612.78
2022-08-01T00:47:47.983Z,-20611.28
2022-08-01T00:50:23.152Z,-20607.97
2022-08-01T00:52:54.162Z,-20607.34
2022-08-01T00:55:22.311Z,-20606.13
2022-08-01T00:58:02.784Z,-20605.22
2022-08-01T01:00:51.973Z,-20606.00
2022-08-01T01:03:23.782Z,-20604.94
2022-08-01T01:06:15.306Z,-20608.41
2022-08-01T01:08:51.801Z,-20606.13
2022-08-01T01:11:27.418Z,-20603.41
2022-08-01T01:14:01.585Z,-20606.13
2022-08-01T01:16:33.514Z,-20605.38
2022-08-01T01:19:04.681Z,-20605.84
2022-08-01T01:21:49.792Z,-20605.53
2022-08-01T01:24:30.455Z,-20605.22
2022-08-01T01:27:07.339Z,-20600.09
2022-08-01T01:29:59.647Z,-20600.38
2022-08-01T01:32:34.790Z,-20600.84
2022-08-01T01:35:07.516Z,-20602.81
2022-08-01T01:37:36.418Z,-20604.78
2022-08-01T01:40:05.904Z,-20607.34
2022-08-01T01:42:34.506Z,-20602.06
2022-08-01T01:45:06.011Z,-20607.03
2022-08-01T01:47:35.342Z,-20605.38
2022-08-01T01:50:07.568Z,-20602.81
2022-08-01T01:52:36.692Z,-20607.03
2022-08-01T01:55:10.056Z,-20605.84
2022-08-01T01:57:41.461Z,-20605.22
2022-08-01T02:00:13.539Z,-20606.91
2022-08-01T02:02:43.159Z,-20605.38
2022-08-01T02:05:12.970Z,-20603.56
2022-08-01T02:07:42.405Z,-20607.34
2022-08-01T02:10:11.871Z,-20606.13
2022-08-01T02:12:43.172Z,-20605.69
2022-08-01T02:15:14.017Z,-20604.00
2022-08-01T02:17:45.619Z,-20599.78
2022-08-01T02:20:14.526Z,-20600.69
2022-08-01T02:22:46.705Z,-20597.81
2022-08-01T02:25:22.551Z,-20595.69
2022-08-01T02:27:56.605Z,-20591.59
2022-08-01T02:30:27.963Z,-20585.69
2022-08-01T02:33:03.044Z,-20582.50
2022-08-01T02:35:34.012Z,-20582.19
2022-08-01T02:38:03.963Z,-20578.25
2022-08-01T02:40:34.683Z,-20577.66
2022-08-01T02:43:05.439Z,-20572.19
2022-08-01T02:45:37.583Z,-20565.22
2022-08-01T02:48:11.666Z,-20563.69
2022-08-01T02:50:40.737Z,-20553.69
2022-08-01T02:53:11.299Z,-20549.75
2022-08-01T02:55:41.627Z,-20548.22
2022-08-01T02:58:11.279Z,-20547.63
2022-08-01T03:00:43.216Z,-20543.38
2022-08-01T03:03:12.757Z,-20541.25
2022-08-01T03:05:41.597Z,-20538.81
2022-08-01T03:08:11.926Z,-20537.91
2022-08-01T03:10:46.508Z,-20547.94
2022-08-01T03:13:16.356Z,-20553.25
2022-08-01T03:15:46.393Z,-20550.34
2022-08-01T03:18:15.875Z,-20547.63
2022-08-01T03:20:45.300Z,-20546.56
2022-08-01T03:23:14.566Z,-20545.03
2022-08-01T03:25:45.420Z,-20543.69
2022-08-01T03:28:16.008Z,-20540.50
2022-08-01T03:30:46.160Z,-20536.41
2022-08-01T03:33:14.606Z,-20533.22
2022-08-01T03:35:49.683Z,-20532.44
2022-08-01T03:38:23.649Z,-20530.78
2022-08-01T03:40:55.340Z,-20529.09
2022-08-01T03:43:30.022Z,-20530.03
2022-08-01T03:46:04.243Z,-20526.97
2022-08-01T03:48:35.123Z,-20523.03
2022-08-01T03:51:03.665Z,-20519.25
2022-08-01T03:53:35.446Z,-20521.50
2022-08-01T03:56:09.479Z,-20516.81
2022-08-01T03:58:40.464Z,-20516.03
2022-08-01T04:01:15.337Z,-20513.63
2022-08-01T04:03:44.321Z,-20519.25
2022-08-01T04:06:14.039Z,-20520.59
2022-08-01T04:08:42.591Z,-20520.00
2022-08-01T04:11:11.276Z,-20517.28
2022-08-01T04:13:39.200Z,-20518.47
2022-08-01T04:16:07.574Z,-20517.13
2022-08-01T04:18:36.611Z,-20522.88
2022-08-01T04:21:04.368Z,-20520.00
2022-08-01T04:23:33.584Z,-20522.13
2022-08-01T04:26:05.067Z,-20522.88
2022-08-01T04:28:36.764Z,-20524.56
2022-08-01T04:31:10.462Z,-20525.75
2022-08-01T04:33:42.749Z,-20527.59
2022-08-01T04:36:13.182Z,-20527.44
2022-08-01T04:38:42.440Z,-20528.66
2022-08-01T04:41:13.148Z,-20532.00
2022-08-01T04:43:44.023Z,-20533.34
2022-08-01T04:46:13.170Z,-20530.94
2022-08-01T04:48:43.323Z,-20525.63
2022-08-01T04:51:16.170Z,-20524.56
2022-08-01T04:53:44.628Z,-20525.63
2022-08-01T04:56:14.109Z,-20524.56
2022-08-01T04:58:42.927Z,-20528.19
2022-08-01T05:01:11.590Z,-20527.88
2022-08-01T05:03:39.445Z,-20526.22
2022-08-01T05:06:08.588Z,-20526.22
2022-08-01T05:08:37.276Z,-20526.84
2022-08-01T05:11:05.577Z,-20523.66
2022-08-01T05:13:33.283Z,-20522.72
2022-08-01T05:16:01.156Z,-20522.13
2022-08-01T05:18:28.923Z,-20524.09
2022-08-01T05:20:56.611Z,-20526.84
2022-08-01T05:23:42.799Z,-20535.47
2022-08-01T05:26:14.847Z,-20545.34
2022-08-01T05:28:42.912Z,-20554.00
2022-08-01T05:31:10.644Z,-20572.81
2022-08-01T05:33:38.496Z,-20584.63
2022-08-01T05:36:06.825Z,-20589.00
2022-08-01T05:38:35.860Z,-20600.09
2022-08-01T05:41:03.730Z,-20601.00
2022-08-01T05:43:31.454Z,-20606.13
2022-08-01T05:45:59.772Z,-20604.00
2022-08-01T05:48:27.648Z,-20604.00
2022-08-01T05:50:58.679Z,-20604.16
2022-08-01T05:53:27.005Z,-20610.38
2022-08-01T05:55:56.113Z,-20614.78
2022-08-01T05:58:24.265Z,-20610.69
2022-08-01T06:00:52.128Z,-20605.38
2022-08-01T06:03:20.927Z,-20612.78
2022-08-01T06:05:48.712Z,-20621.28
2022-08-01T06:08:16.533Z,-20635.19
2022-08-01T06:10:44.196Z,-20650.34
2022-08-01T06:13:13.336Z,-20663.66
2022-08-01T06:15:41.184Z,-20689.63
2022-08-01T06:18:09.067Z,-20705.66
2022-08-01T06:20:36.739Z,-20686.78
2022-08-01T06:23:14.670Z,-20683.59
2022-08-01T06:25:54.515Z,-20686.91
2022-08-01T06:28:23.901Z,-20692.34
2022-08-01T06:30:52.023Z,-20689.03
2022-08-01T06:33:19.744Z,-20699.75
2022-08-01T06:35:47.432Z,-20700.06
2022-08-01T06:38:15.976Z,-20712.00
2022-08-01T06:40:43.817Z,-20708.66
2022-08-01T06:43:12.685Z,-20702.94
2022-08-01T06:45:42.301Z,-20692.34
2022-08-01T06:48:10.219Z,-20690.84
2022-08-01T06:50:38.557Z,-20699.59
2022-08-01T06:53:06.250Z,-20703.38
2022-08-01T06:55:33.972Z,-20708.97
2022-08-01T06:58:01.666Z,-20702.03
2022-08-01T07:00:29.673Z,-20693.56
2022-08-01T07:03:00.965Z,-20704.44
2022-08-01T07:05:29.563Z,-20702.31
2022-08-01T07:07:57.215Z,-20705.81
2022-08-01T07:10:25.013Z,-20705.03
2022-08-01T07:12:52.736Z,-20706.56
2022-08-01T07:15:23.041Z,-20690.84
2022-08-01T07:17:50.730Z,-20702.31
2022-08-01T07:20:20.227Z,-20711.53
2022-08-01T07:22:48.335Z,-20729.66
2022-08-01T07:25:16.777Z,-20722.69
2022-08-01T07:27:44.561Z,-20730.41
2022-08-01T07:30:12.931Z,-20743.97
2022-08-01T07:32:40.903Z,-20748.19
2022-08-01T07:35:09.328Z,-20741.56
2022-08-01T07:37:47.787Z,-20756.63
2022-08-01T07:40:18.090Z,-20743.06
2022-08-01T07:42:46.085Z,-20756.19
2022-08-01T07:45:15.464Z,-20757.53
2022-08-01T07:47:43.668Z,-20777.72
2022-08-01T07:50:11.596Z,-20800.63
2022-08-01T07:52:40.803Z,-20811.59
2022-08-01T07:55:10.398Z,-20816.25
2022-08-01T07:57:38.657Z,-20800.63
2022-08-01T08:00:10.786Z,-20790.22
2022-08-01T08:02:38.496Z,-20804.53
2022-08-01T08:05:08.258Z,-20774.72
2022-08-01T08:07:36.576Z,-20753.16
2022-08-01T08:10:06.844Z,-20740.66
2022-08-01T08:12:35.104Z,-20734.63
2022-08-01T08:15:06.693Z,-20728.59
2022-08-01T08:17:35.598Z,-20744.28
2022-08-01T08:20:04.779Z,-20742.00
2022-08-01T08:22:37.210Z,-20737.63
2022-08-01T08:25:08.341Z,-20744.72
2022-08-01T08:27:37.469Z,-20750.75
2022-08-01T08:30:08.459Z,-20762.81
2022-08-01T08:32:36.589Z,-20764.47
2022-08-01T08:35:05.670Z,-20774.72
2022-08-01T08:37:38.964Z,-20785.56
2022-08-01T08:40:13.095Z,-20790.53
2022-08-01T08:42:42.735Z,-20787.66
2022-08-01T08:45:12.437Z,-20782.41
2022-08-01T08:47:41.377Z,-20759.50
2022-08-01T08:50:09.598Z,-20769.28
2022-08-01T08:52:40.441Z,-20754.81
2022-08-01T08:55:10.958Z,-20748.94
2022-08-01T08:57:42.921Z,-20750.16
2022-08-01T09:00:12.952Z,-20769.00
2022-08-01T09:02:43.429Z,-20778.03
2022-08-01T09:05:14.946Z,-20769.91
2022-08-01T09:07:45.532Z,-20754.22
2022-08-01T09:10:13.490Z,-20768.09
2022-08-01T09:13:11.546Z,-20783.75
2022-08-01T09:15:45.048Z,-20769.59
2022-08-01T09:18:30.643Z,-20744.44
2022-08-01T09:21:17.365Z,-20759.66
2022-08-01T09:23:54.164Z,-20761.47
2022-08-01T09:26:30.191Z,-20766.72
2022-08-01T09:29:01.330Z,-20752.13
2022-08-01T09:31:38.406Z,-20756.78
2022-08-01T09:34:07.074Z,-20766.72
2022-08-01T09:36:49.484Z,-20754.69
2022-08-01T09:39:17.653Z,-20760.56
2022-08-01T09:41:45.433Z,-20759.06
2022-08-01T09:44:14.920Z,-20752.72
2022-08-01T09:46:54.526Z,-20746.69
2022-08-01T09:49:50.447Z,-20731.00
2022-08-01T09:52:21.481Z,-20740.66
2022-08-01T09:54:58.096Z,-20749.41
2022-08-01T09:57:27.254Z,-20759.81
2022-08-01T10:00:00.806Z,-20759.06
2022-08-01T10:02:32.278Z,-20758.44
2022-08-01T10:05:03.677Z,-20769.28
2022-08-01T10:07:42.913Z,-20802.13
2022-08-01T10:10:12.856Z,-20839.72
2022-08-01T10:12:44.367Z,-20843.91
2022-08-01T10:15:18.027Z,-20829.50
2022-08-01T10:17:54.513Z,-20820.19
2022-08-01T10:20:30.083Z,-20797.47
2022-08-01T10:23:02.368Z,-20801.81
2022-08-01T10:25:42.418Z,-20791.13
2022-08-01T10:28:18.259Z,-20779.53
2022-08-01T10:30:53.831Z,-20766.59
2022-08-01T10:33:51.200Z,-20767.47
2022-08-01T10:36:12.609Z,-20767.78
2022-08-01T10:38:41.908Z,-20770.78
2022-08-01T10:41:10.678Z,-20777.44
2022-08-01T10:43:38.496Z,-20794.00
2022-08-01T10:46:08.199Z,-20806.94
2022-08-01T10:48:45.095Z,-20787.06
2022-08-01T10:51:17.731Z,-20797.47
2022-08-01T10:53:54.541Z,-20783.91
2022-08-01T10:56:26.909Z,-20784.66
2022-08-01T10:59:06.352Z,-20791.88
2022-08-01T11:01:38.415Z,-20795.50
2022-08-01T11:04:15.515Z,-20783.31
2022-08-01T11:06:54.387Z,-20781.66
2022-08-01T11:09:37.065Z,-20792.94
2022-08-01T11:12:13.124Z,-20798.81
2022-08-01T11:15:29.290Z,-20800.00
2022-08-01T11:18:02.084Z,-20785.25
2022-08-01T11:20:32.209Z,-20795.81
2022-08-01T11:23:28.618Z,-20781.34
2022-08-01T11:26:13.587Z,-20773.81
2022-08-01T11:28:59.169Z,-20779.53
2022-08-01T11:31:37.453Z,-20778.94
2022-08-01T11:34:08.090Z,-20768.09
2022-08-01T11:36:58.549Z,-20776.81
2022-08-01T11:39:23.910Z,-20788.56
2022-08-01T11:41:53.492Z,-20805.72
2022-08-01T11:44:26.540Z,-20827.53
2022-08-01T11:47:08.738Z,-20841.22
2022-08-01T11:50:02.409Z,-20830.41
2022-08-01T11:52:32.741Z,-20833.09
2022-08-01T11:55:10.424Z,-20824.53
2022-08-01T11:57:39.854Z,-20817.47
2022-08-01T12:00:15.236Z,-20815.66
2022-08-01T12:02:45.743Z,-20810.84
2022-08-01T12:05:18.420Z,-20809.78
2022-08-01T12:07:47.518Z,-20793.53
2022-08-01T12:10:17.020Z,-20784.22
2022-08-01T12:12:47.100Z,-20782.69
2022-08-01T12:15:15.580Z,-20806.63
2022-08-01T12:17:57.284Z,-20812.94
2022-08-01T12:20:31.427Z,-20833.56
2022-08-01T12:23:01.488Z,-20845.72
2022-08-01T12:25:29.568Z,-20843.78
2022-08-01T12:28:01.248Z,-20838.50
2022-08-01T12:30:31.910Z,-20835.81
2022-08-01T12:33:00.041Z,-20847.53
2022-08-01T12:35:30.639Z,-20855.19
2022-08-01T12:38:00.907Z,-20857.28
2022-08-01T12:40:30.165Z,-20864.66
2022-08-01T12:42:59.308Z,-20867.50
2022-08-01T12:45:29.080Z,-20871.09
2022-08-01T12:47:58.614Z,-20852.03
2022-08-01T12:50:30.684Z,-20854.00
2022-08-01T12:52:59.253Z,-20872.00
2022-08-01T12:55:33.788Z,-20861.03
2022-08-01T12:58:10.291Z,-20859.09
2022-08-01T13:00:45.468Z,-20839.41
2022-08-01T13:03:15.290Z,-20837.63
2022-08-01T13:05:46.216Z,-20855.50
2022-08-01T13:08:15.302Z,-20851.13
2022-08-01T13:10:43.895Z,-20837.91
2022-08-01T13:13:27.816Z,-20843.78
2022-08-01T13:16:05.510Z,-20866.00
2022-08-01T13:18:34.885Z,-20860.59
2022-08-01T13:21:11.669Z,-20864.97
2022-08-01T13:24:02.838Z,-20864.19
2022-08-01T13:26:40.550Z,-20837.75
2022-08-01T13:29:09.671Z,-20844.97
2022-08-01T13:31:38.458Z,-20862.09
2022-08-01T13:34:06.810Z,-20859.25
2022-08-01T13:36:36.241Z,-20845.44
2022-08-01T13:39:21.787Z,-20852.78
2022-08-01T13:41:50.144Z,-20841.22
2022-08-01T13:44:17.892Z,-20843.78
2022-08-01T13:46:49.885Z,-20846.78
2022-08-01T13:49:20.068Z,-20842.44
2022-08-01T13:51:50.995Z,-20835.22
2022-08-01T13:54:18.797Z,-20828.28
2022-08-01T13:56:46.991Z,-20822.88
2022-08-01T13:59:15.020Z,-20824.97
2022-08-01T14:01:43.525Z,-20839.13
2022-08-01T14:04:11.431Z,-20843.31
2022-08-01T14:06:39.144Z,-20856.69
2022-08-01T14:09:17.970Z,-20853.25
2022-08-01T14:11:51.696Z,-20845.28
2022-08-01T14:14:19.852Z,-20837.31
2022-08-01T14:16:49.013Z,-20843.03
2022-08-01T14:19:17.610Z,-20840.63
2022-08-01T14:21:47.231Z,-20832.66
2022-08-01T14:24:16.211Z,-20832.50
2022-08-01T14:26:43.890Z,-20824.22
2022-08-01T14:29:11.587Z,-20818.66
2022-08-01T14:31:39.181Z,-20817.47
2022-08-01T14:34:07.131Z,-20821.97
2022-08-01T14:36:38.185Z,-20816.56
2022-08-01T14:39:06.926Z,-20808.75
2022-08-01T14:41:41.646Z,-20809.50
2022-08-01T14:44:09.914Z,-20811.75
2022-08-01T14:46:37.590Z,-20815.66
2022-08-01T14:49:24.845Z,-20802.41
2022-08-01T14:51:52.750Z,-20800.75
2022-08-01T14:54:26.812Z,-20804.81
2022-08-01T14:56:58.505Z,-20795.19
2022-08-01T14:59:26.431Z,-20794.44
2022-08-01T15:01:54.238Z,-20802.72
2022-08-01T15:04:22.005Z,-20803.94
2022-08-01T15:06:49.857Z,-20801.81
2022-08-01T15:09:17.635Z,-20798.34
2022-08-01T15:11:50.163Z,-20787.38
2022-08-01T15:14:36.938Z,-20789.31
2022-08-01T15:17:04.718Z,-20782.53
2022-08-01T15:19:32.359Z,-20776.81
2022-08-01T15:22:01.699Z,-20772.16
2022-08-01T15:24:29.599Z,-20779.25
2022-08-01T15:26:57.378Z,-20778.03
2022-08-01T15:29:26.358Z,-20785.72
2022-08-01T15:31:54.059Z,-20778.78
2022-08-01T15:34:21.700Z,-20772.00
2022-08-01T15:36:49.328Z,-20772.00
2022-08-01T15:39:17.275Z,-20781.66
2022-08-01T15:41:45.258Z,-20781.94
2022-08-01T15:44:12.826Z,-20778.19
2022-08-01T15:46:42.071Z,-20772.00
2022-08-01T15:49:10.004Z,-20772.91
2022-08-01T15:51:37.733Z,-20772.31
2022-08-01T15:54:09.228Z,-20765.38
2022-08-01T15:56:40.831Z,-20773.22
2022-08-01T15:59:08.744Z,-20758.75
2022-08-01T16:01:36.576Z,-20762.97
2022-08-01T16:04:07.469Z,-20761.59
2022-08-01T16:06:35.947Z,-20763.56
2022-08-01T16:09:03.737Z,-20757.84
2022-08-01T16:11:31.771Z,-20758.44
2022-08-01T16:13:59.460Z,-20757.84
2022-08-01T16:16:27.365Z,-20753.47
2022-08-01T16:18:55.114Z,-20755.56
2022-08-01T16:21:25.041Z,-20755.44
2022-08-01T16:23:53.075Z,-20748.66
2022-08-01T16:26:27.254Z,-20751.66
2022-08-01T16:28:55.855Z,-20753.00
2022-08-01T16:31:37.895Z,-20743.06
2022-08-01T16:34:13.093Z,-20745.34
2022-08-01T16:36:44.185Z,-20745.03
2022-08-01T16:39:11.898Z,-20740.34
2022-08-01T16:41:39.722Z,-20742.31
2022-08-01T16:44:07.448Z,-20739.75
2022-08-01T16:46:35.427Z,-20740.19
2022-08-01T16:49:03.106Z,-20744.88
2022-08-01T16:51:32.583Z,-20740.81
2022-08-01T16:54:01.987Z,-20741.25
2022-08-01T16:56:29.858Z,-20739.00
2022-08-01T16:58:57.518Z,-20741.41
2022-08-01T17:02:00.167Z,-20739.31
2022-08-01T17:04:13.235Z,-20734.78
2022-08-01T17:06:41.024Z,-20731.59
2022-08-01T17:09:10.165Z,-20733.88
2022-08-01T17:11:37.899Z,-20734.78
2022-08-01T17:14:06.631Z,-20736.13
2022-08-01T17:16:36.011Z,-20738.09
2022-08-01T17:19:03.731Z,-20738.53
2022-08-01T17:21:31.563Z,-20737.63
2022-08-01T17:23:59.428Z,-20736.72
2022-08-01T17:26:28.599Z,-20734.31
2022-08-01T17:28:56.468Z,-20733.41
2022-08-01T17:31:24.142Z,-20734.63
2022-08-01T17:33:55.034Z,-20731.59
2022-08-01T17:36:25.324Z,-20732.97
2022-08-01T17:38:53.072Z,-20730.69
2022-08-01T17:41:20.919Z,-20736.13
2022-08-01T17:43:50.175Z,-20734.91
2022-08-01T17:46:18.451Z,-20735.53
2022-08-01T17:48:46.605Z,-20728.59
2022-08-01T17:51:17.083Z,-20731.91
2022-08-01T17:53:55.760Z,-20733.25
2022-08-01T17:56:25.215Z,-20732.22
2022-08-01T17:58:54.980Z,-20729.03
2022-08-01T18:01:26.502Z,-20730.09
2022-08-01T18:03:55.353Z,-20728.28
2022-08-01T18:06:25.475Z,-20729.94
2022-08-01T18:08:56.052Z,-20731.31
2022-08-01T18:11:27.528Z,-20726.78
2022-08-01T18:13:57.087Z,-20727.22
2022-08-01T18:16:27.396Z,-20727.22
2022-08-01T18:18:55.996Z,-20727.38
2022-08-01T18:21:23.876Z,-20727.09
2022-08-01T18:23:52.567Z,-20726.19
2022-08-01T18:26:21.270Z,-20723.16
2022-08-01T18:28:49.450Z,-20722.56
2022-08-01T18:31:20.453Z,-20722.84
2022-08-01T18:33:49.077Z,-20725.41
2022-08-01T18:36:31.327Z,-20726.63
2022-08-01T18:39:04.316Z,-20725.88
2022-08-01T18:41:32.812Z,-20726.78
2022-08-01T18:44:05.398Z,-20721.03
2022-08-01T18:46:38.510Z,-20721.03
2022-08-01T18:49:07.862Z,-20715.59
2022-08-01T18:51:43.832Z,-20717.41
2022-08-01T18:54:13.256Z,-20716.22
2022-08-01T18:56:41.132Z,-20710.19
2022-08-01T18:59:08.875Z,-20709.88
2022-08-01T19:01:39.690Z,-20703.84
2022-08-01T19:04:08.099Z,-20704.44
2022-08-01T19:06:35.954Z,-20699.91
2022-08-01T19:09:04.408Z,-20700.53
2022-08-01T19:11:33.122Z,-20702.63
2022-08-01T19:14:02.277Z,-20703.09
2022-08-01T19:16:30.515Z,-20700.22
2022-08-01T19:18:59.591Z,-20699.91
2022-08-01T19:21:28.650Z,-20696.88
2022-08-01T19:24:13.960Z,-20696.59
2022-08-01T19:26:48.383Z,-20688.72
2022-08-01T19:29:19.334Z,-20686.16
2022-08-01T19:31:49.127Z,-20686.16
2022-08-01T19:34:20.189Z,-20684.81
2022-08-01T19:36:56.680Z,-20682.69
2022-08-01T19:39:27.131Z,-20683.00
2022-08-01T19:41:55.946Z,-20681.03
2022-08-01T19:44:25.229Z,-20680.41
2022-08-01T19:46:54.137Z,-20680.56
2022-08-01T19:49:24.245Z,-20678.91
2022-08-01T19:51:55.285Z,-20673.91
2022-08-01T19:54:29.379Z,-20666.38
2022-08-01T19:57:01.736Z,-20668.47
2022-08-01T19:59:32.591Z,-20668.63
2022-08-01T20:02:00.534Z,-20668.19
2022-08-01T20:04:29.947Z,-20666.38
2022-08-01T20:06:57.917Z,-20665.59
2022-08-01T20:09:26.504Z,-20660.63
2022-08-01T20:11:55.471Z,-20661.22
2022-08-01T20:14:25.101Z,-20660.47
2022-08-01T20:16:54.397Z,-20658.50
2022-08-01T20:19:24.398Z,-20656.09
2022-08-01T20:22:03.500Z,-20655.47
2022-08-01T20:24:38.230Z,-20652.59
2022-08-01T20:27:10.178Z,-20652.75
2022-08-01T20:29:38.971Z,-20652.44
2022-08-01T20:32:07.836Z,-20649.13
2022-08-01T20:34:38.206Z,-20649.13
2022-08-01T20:37:12.881Z,-20646.41
2022-08-01T20:39:43.400Z,-20642.78
2022-08-01T20:42:12.591Z,-20646.56
2022-08-01T20:44:40.735Z,-20646.69
2022-08-01T20:47:09.124Z,-20645.19
2022-08-01T20:49:37.951Z,-20646.69
2022-08-01T20:52:11.928Z,-20647.00
2022-08-01T20:54:41.907Z,-20644.59
2022-08-01T20:57:16.977Z,-20642.47
2022-08-01T20:59:55.790Z,-20641.25
2022-08-01T21:02:32.312Z,-20643.84
2022-08-01T21:05:05.989Z,-20639.75
2022-08-01T21:07:38.950Z,-20640.66
2022-08-01T21:10:10.953Z,-20643.06
2022-08-01T21:12:49.430Z,-20640.97
2022-08-01T21:15:28.430Z,-20638.38
2022-08-01T21:18:02.306Z,-20639.00
2022-08-01T21:20:33.373Z,-20638.09
2022-08-01T21:23:15.388Z,-20637.78
2022-08-01T21:25:44.815Z,-20636.25
2022-08-01T21:28:14.925Z,-20634.59
2022-08-01T21:30:43.482Z,-20633.84
2022-08-01T21:33:24.521Z,-20630.06
2022-08-01T21:35:56.128Z,-20626.13
2022-08-01T21:38:24.987Z,-20621.88
2022-08-01T21:40:55.363Z,-20618.84
2022-08-01T21:43:24.092Z,-20615.22
2022-08-01T21:45:57.886Z,-20619.63
2022-08-01T21:48:30.778Z,-20619.63
2022-08-01T21:51:00.823Z,-20623.09
2022-08-01T21:53:38.453Z,-20621.59
2022-08-01T21:56:22.583Z,-20624.00
2022-08-01T21:58:56.515Z,-20626.13
2022-08-01T22:01:33.380Z,-20625.22
2022-08-01T22:04:23.184Z,-20623.72
2022-08-01T22:06:52.794Z,-20616.13
2022-08-01T22:09:22.016Z,-20616.44
2022-08-01T22:11:59.374Z,-20614.63
2022-08-01T22:14:31.001Z,-20615.06
2022-08-01T22:16:59.886Z,-20612.19
2022-08-01T22:19:35.138Z,-20612.50
2022-08-01T22:22:45.431Z,-20609.47
2022-08-01T22:25:02.937Z,-20612.03
2022-08-01T22:28:06.363Z,-20612.34
2022-08-01T22:30:20.447Z,-20606.44
2022-08-01T22:33:08.053Z,-20609.16
2022-08-01T22:35:39.901Z,-20610.06
2022-08-01T22:38:07.965Z,-20611.28
2022-08-01T22:40:45.140Z,-20613.56
2022-08-01T22:43:30.478Z,-20611.28
2022-08-01T22:46:11.835Z,-20608.88
2022-08-01T22:48:45.843Z,-20609.47
2022-08-01T22:51:27.115Z,-20604.16
2022-08-01T22:54:04.535Z,-20601.59
2022-08-01T22:56:37.170Z,-20601.00
2022-08-01T22:59:12.272Z,-20597.50
2022-08-01T23:01:47.600Z,-20594.47
2022-08-01T23:04:33.085Z,-20595.84
2022-08-01T23:07:05.003Z,-20594.31
2022-08-01T23:09:54.000Z,-20592.66
2022-08-01T23:12:23.577Z,-20592.50
2022-08-01T23:14:54.402Z,-20591.16
2022-08-01T23:17:26.758Z,-20586.75
2022-08-01T23:19:58.357Z,-20585.97
2022-08-01T23:22:30.176Z,-20582.19
2022-08-01T23:25:04.686Z,-20581.00
2022-08-01T23:27:55.842Z,-20583.72
2022-08-01T23:30:25.557Z,-20580.22
2022-08-01T23:32:53.371Z,-20572.34
2022-08-01T23:35:21.315Z,-20573.56
2022-08-01T23:37:51.263Z,-20570.06
2022-08-01T23:40:20.162Z,-20571.91
2022-08-01T23:42:47.930Z,-20567.66
2022-08-01T23:45:16.323Z,-20571.75
2022-08-01T23:47:45.364Z,-20567.94
2022-08-01T23:50:13.285Z,-20569.78
2022-08-01T23:52:48.154Z,-20565.81
2022-08-01T23:55:17.491Z,-20566.44
2022-08-01T23:57:45.235Z,-20564.00
